Time;durP1;ratioP1;P1;durP2;ratioP2;P2;SDS_P1;SDS_P2;PMS_P1;PMS_P2;Temp;Humidity;BMP_temperature;BMP_pressure;BME280_temperature;BME280_humidity;BME280_pressure;Samples;Min_cycle;Max_cycle;Signal;HPM_P1;HPM_P2
2023/11/21 00:01:14;;;;;;;7.70;2.00;;;;;;;;;;104064;1300;545376;-72
2023/11/21 00:04:55;;;;;;;7.90;1.80;;;;;;;;;;103880;1292;545166;-73
2023/11/21 00:08:33;;;;;;;7.40;2.00;;;;;;;;;;105773;1289;545621;-72
2023/11/21 00:12:10;;;;;;;8.80;2.30;;;;;;;;;;103568;1294;544929;-72
2023/11/21 00:15:48;;;;;;;8.80;2.20;;;;;;;;;;103833;1289;544808;-72
2023/11/21 00:19:25;;;;;;;7.10;1.90;;;;;;;;;;103796;1292;545887;-71
2023/11/21 00:23:03;;;;;;;8.30;2.50;;;;;;;;;;103791;1293;544954;-71
2023/11/21 00:26:40;;;;;;;8.40;2.40;;;;;;;;;;103845;1289;545424;-71
2023/11/21 00:30:20;;;;;;;7.40;2.00;;;;;;;;;;103840;1290;545596;-73
2023/11/21 00:33:51;;;;;;;7.90;2.10;;;;;;;;;;103977;1289;545029;-73
2023/11/21 00:37:36;;;;;;;9.30;2.50;;;;;;;;;;103805;1292;544849;-73
2023/11/21 00:41:10;;;;;;;9.10;2.90;;;;;;;;;;103803;1291;544976;-72
2023/11/21 00:44:43;;;;;;;9.30;2.40;;;;;;;;;;104026;1289;546377;-73
2023/11/21 00:48:25;;;;;;;7.80;2.50;;;;;;;;;;103803;1291;544904;-75
2023/11/21 00:52:03;;;;;;;10.10;3.30;;;;;;;;;;103795;1290;544790;-73
2023/11/21 00:55:40;;;;;;;8.70;3.00;;;;;;;;;;104010;1288;544977;-74
2023/11/21 00:59:13;;;;;;;10.30;2.80;;;;;;;;;;103604;1293;545594;-73
2023/11/21 01:02:55;;;;;;;7.90;2.60;;;;;;;;;;103840;1291;545748;-72
2023/11/21 01:06:33;;;;;;;8.50;2.80;;;;;;;;;;104015;1288;545967;-73
2023/11/21 01:24:14;;;;;;;10.40;2.60;;;;;;;;;;104820;1284;545235;-76
2023/11/21 01:26:58;;;;;;;8.30;2.50;;;;;;;;;;103821;1295;545002;-74
2023/11/21 01:30:35;;;;;;;7.30;2.30;;;;;;;;;;103834;1291;544887;-73
2023/11/21 01:34:14;;;;;;;6.70;1.80;;;;;;;;;;103740;1289;544879;-73
2023/11/21 01:37:50;;;;;;;6.20;2.00;;;;;;;;;;103691;1291;545053;-73
2023/11/21 01:41:28;;;;;;;7.70;2.10;;;;;;;;;;103725;1291;545518;-73
2023/11/21 01:45:05;;;;;;;4.90;1.80;;;;;;;;;;103874;1292;545011;-73
2023/11/21 01:48:42;;;;;;;7.80;1.90;;;;;;;;;;103778;1291;545233;-73
2023/11/21 01:52:20;;;;;;;7.00;2.10;;;;;;;;;;103918;1289;544724;-72
2023/11/21 01:55:57;;;;;;;7.40;1.80;;;;;;;;;;103764;1292;544805;-73
2023/11/21 01:59:38;;;;;;;8.20;2.20;;;;;;;;;;103928;1289;545464;-71
2023/11/21 02:03:12;;;;;;;8.00;1.90;;;;;;;;;;103873;1289;544774;-73
2023/11/21 02:06:50;;;;;;;7.40;2.00;;;;;;;;;;103733;1291;545377;-73
2023/11/21 02:10:29;;;;;;;6.40;2.20;;;;;;;;;;103630;1294;545174;-72
2023/11/21 02:14:07;;;;;;;7.60;1.70;;;;;;;;;;103750;1289;544779;-72
2023/11/21 02:17:47;;;;;;;7.00;1.70;;;;;;;;;;103845;1289;545588;-73
2023/11/21 02:21:19;;;;;;;6.80;1.70;;;;;;;;;;103569;1298;545122;-72
2023/11/21 02:24:57;;;;;;;7.50;1.80;;;;;;;;;;103774;1289;544992;-72
2023/11/21 02:28:35;;;;;;;6.60;1.80;;;;;;;;;;103625;1294;544994;-71
2023/11/21 02:32:12;;;;;;;5.20;1.60;;;;;;;;;;103841;1295;545462;-72
2023/11/21 02:35:50;;;;;;;7.00;2.50;;;;;;;;;;103886;1289;545741;-74
2023/11/21 02:39:26;;;;;;;6.30;1.60;;;;;;;;;;103814;1289;545027;-73
2023/11/21 02:43:05;;;;;;;7.40;1.70;;;;;;;;;;103975;1289;545056;-73
2023/11/21 02:46:42;;;;;;;7.40;2.00;;;;;;;;;;104139;1285;544783;-73
2023/11/21 02:50:20;;;;;;;9.30;2.10;;;;;;;;;;103534;1294;544881;-71
2023/11/21 02:53:58;;;;;;;6.90;1.80;;;;;;;;;;104229;1285;544891;-73
2023/11/21 02:57:34;;;;;;;7.60;2.10;;;;;;;;;;103789;1291;544926;-73
2023/11/21 03:01:12;;;;;;;5.60;1.70;;;;;;;;;;103835;1289;545367;-71
2023/11/21 03:04:49;;;;;;;8.30;2.30;;;;;;;;;;103914;1292;545045;-73
2023/11/21 03:08:26;;;;;;;5.90;1.80;;;;;;;;;;103815;1290;544818;-72
2023/11/21 03:12:04;;;;;;;5.90;1.80;;;;;;;;;;103838;1292;545371;-74
2023/11/21 03:15:42;;;;;;;7.80;2.10;;;;;;;;;;103666;1293;545881;-73
2023/11/21 03:19:19;;;;;;;7.80;2.10;;;;;;;;;;104017;1289;545534;-72
2023/11/21 03:22:56;;;;;;;6.30;2.10;;;;;;;;;;103834;1292;545249;-74
2023/11/21 03:26:34;;;;;;;7.20;1.80;;;;;;;;;;103816;1293;544951;-75
2023/11/21 03:30:11;;;;;;;7.50;2.40;;;;;;;;;;103792;1290;545804;-74
2023/11/21 03:33:49;;;;;;;9.40;2.20;;;;;;;;;;103840;1295;544749;-73
2023/11/21 03:37:27;;;;;;;8.00;2.10;;;;;;;;;;103655;1291;545739;-74
2023/11/21 03:41:04;;;;;;;8.40;2.20;;;;;;;;;;103868;1289;545034;-73
2023/11/21 03:44:41;;;;;;;9.70;2.30;;;;;;;;;;104045;1299;544961;-72
2023/11/21 03:48:18;;;;;;;11.70;2.60;;;;;;;;;;104166;1285;545588;-72
2023/11/21 03:51:56;;;;;;;10.90;3.20;;;;;;;;;;103795;1295;545708;-72
2023/11/21 03:55:33;;;;;;;7.60;1.90;;;;;;;;;;104104;1289;544826;-72
2023/11/21 03:59:11;;;;;;;7.50;2.40;;;;;;;;;;103852;1289;545591;-72
2023/11/21 04:02:50;;;;;;;8.10;2.60;;;;;;;;;;103862;1289;544765;-72
2023/11/21 04:06:25;;;;;;;7.50;2.40;;;;;;;;;;104356;1286;545798;-72
2023/11/21 04:10:07;;;;;;;7.30;2.20;;;;;;;;;;103511;1298;544765;-72
2023/11/21 04:13:42;;;;;;;10.80;2.90;;;;;;;;;;104338;1286;545625;-73
2023/11/21 04:17:19;;;;;;;9.20;3.10;;;;;;;;;;103796;1289;545017;-71
2023/11/21 04:20:57;;;;;;;9.00;2.50;;;;;;;;;;103722;1292;544953;-73
2023/11/21 04:24:33;;;;;;;7.30;2.60;;;;;;;;;;103696;1295;544844;-71
2023/11/21 04:28:13;;;;;;;9.30;3.00;;;;;;;;;;103829;1292;545701;-72
2023/11/21 04:31:49;;;;;;;10.20;3.00;;;;;;;;;;103873;1289;544958;-75
2023/11/21 04:35:26;;;;;;;9.30;3.40;;;;;;;;;;103812;1295;544864;-72
2023/11/21 04:39:03;;;;;;;8.70;3.10;;;;;;;;;;103835;1289;544699;-72
2023/11/21 04:42:41;;;;;;;11.50;3.50;;;;;;;;;;103621;1291;544960;-72
2023/11/21 04:46:18;;;;;;;11.10;3.40;;;;;;;;;;103625;1296;545659;-74
2023/11/21 04:49:56;;;;;;;9.70;3.20;;;;;;;;;;103997;1288;544908;-74
2023/11/21 04:53:34;;;;;;;10.20;3.30;;;;;;;;;;103753;1292;545423;-72
2023/11/21 04:57:10;;;;;;;10.30;3.10;;;;;;;;;;103568;1294;544716;-72
2023/11/21 05:00:49;;;;;;;10.20;3.20;;;;;;;;;;103821;1288;545031;-72
2023/11/21 05:04:22;;;;;;;9.40;3.20;;;;;;;;;;104001;1294;544721;-72
2023/11/21 05:08:03;;;;;;;7.60;2.80;;;;;;;;;;104561;1283;545946;-72
2023/11/21 05:11:40;;;;;;;9.80;3.40;;;;;;;;;;103859;1291;544899;-72
2023/11/21 05:15:18;;;;;;;10.20;3.50;;;;;;;;;;103846;1292;544844;-72
2023/11/21 05:19:00;;;;;;;10.40;3.30;;;;;;;;;;103766;1290;545537;-74
2023/11/21 05:22:33;;;;;;;8.20;2.90;;;;;;;;;;103799;1291;544868;-73
2023/11/21 05:26:10;;;;;;;11.60;3.50;;;;;;;;;;103852;1291;544939;-73
2023/11/21 05:29:48;;;;;;;12.00;3.60;;;;;;;;;;103633;1294;545269;-74
2023/11/21 05:33:25;;;;;;;8.30;2.80;;;;;;;;;;103626;1293;545036;-72
2023/11/21 05:37:05;;;;;;;11.00;3.40;;;;;;;;;;103982;1292;544836;-72
2023/11/21 05:40:40;;;;;;;10.80;3.40;;;;;;;;;;103817;1293;545294;-72
2023/11/21 05:44:17;;;;;;;10.30;3.80;;;;;;;;;;104176;1288;545033;-74
2023/11/21 05:47:55;;;;;;;11.00;3.80;;;;;;;;;;103901;1290;544936;-71
2023/11/21 05:51:32;;;;;;;11.30;3.20;;;;;;;;;;103753;1289;545221;-70
2023/11/21 05:55:10;;;;;;;9.40;2.80;;;;;;;;;;103784;1291;544749;-73
2023/11/21 05:58:47;;;;;;;10.90;3.30;;;;;;;;;;103783;1289;544748;-74
2023/11/21 06:02:25;;;;;;;12.80;4.40;;;;;;;;;;104127;1288;544948;-72
2023/11/21 06:05:59;;;;;;;11.70;4.30;;;;;;;;;;103863;1289;544727;-73
2023/11/21 06:09:40;;;;;;;9.40;3.80;;;;;;;;;;103826;1290;545414;-71
2023/11/21 06:13:20;;;;;;;12.10;4.40;;;;;;;;;;103992;1289;545572;-71
2023/11/21 06:16:56;;;;;;;9.20;3.90;;;;;;;;;;104096;1287;545741;-72
2023/11/21 06:20:32;;;;;;;10.50;4.10;;;;;;;;;;103905;1289;545022;-73
2023/11/21 06:24:10;;;;;;;8.70;3.50;;;;;;;;;;103694;1291;545328;-71
2023/11/21 06:27:48;;;;;;;11.30;3.40;;;;;;;;;;103641;1295;545006;-70
2023/11/21 06:31:24;;;;;;;11.50;3.90;;;;;;;;;;103680;1295;544995;-71
2023/11/21 06:35:03;;;;;;;11.10;3.50;;;;;;;;;;103578;1295;544857;-70
2023/11/21 06:38:39;;;;;;;10.30;3.80;;;;;;;;;;103520;1298;544951;-72
2023/11/21 06:42:17;;;;;;;11.90;3.90;;;;;;;;;;103785;1291;545120;-70
2023/11/21 06:45:54;;;;;;;11.10;3.70;;;;;;;;;;103850;1294;544765;-72
2023/11/21 06:49:28;;;;;;;10.40;3.90;;;;;;;;;;103980;1292;545436;-71
2023/11/21 06:53:09;;;;;;;11.80;4.10;;;;;;;;;;103275;1291;544990;-72
2023/11/21 06:56:46;;;;;;;11.50;5.30;;;;;;;;;;103577;1297;544973;-70
2023/11/21 07:00:20;;;;;;;12.40;5.20;;;;;;;;;;103897;1292;545445;-73
2023/11/21 07:04:02;;;;;;;10.90;4.60;;;;;;;;;;104016;1289;544952;-72
2023/11/21 07:07:39;;;;;;;10.80;4.60;;;;;;;;;;103797;1291;544808;-70
2023/11/21 07:11:17;;;;;;;9.50;4.30;;;;;;;;;;103918;1289;545964;-71
2023/11/21 07:14:56;;;;;;;10.60;5.40;;;;;;;;;;103942;1288;544969;-74
2023/11/21 07:18:31;;;;;;;10.50;4.30;;;;;;;;;;103815;1289;545753;-71
2023/11/21 07:22:05;;;;;;;11.00;5.00;;;;;;;;;;103753;1292;544914;-70
2023/11/21 07:25:47;;;;;;;11.70;5.70;;;;;;;;;;103910;1289;544894;-70
2023/11/21 07:29:29;;;;;;;12.40;5.70;;;;;;;;;;103504;1298;545051;-73
2023/11/21 07:32:57;;;;;;;13.60;6.00;;;;;;;;;;103922;1289;544940;-70
2023/11/21 07:36:39;;;;;;;13.50;5.60;;;;;;;;;;104065;1289;544772;-71
2023/11/21 07:40:16;;;;;;;14.30;7.20;;;;;;;;;;103709;1295;545295;-71
2023/11/21 07:43:55;;;;;;;13.00;6.60;;;;;;;;;;103730;1292;545683;-70
2023/11/21 07:47:34;;;;;;;12.80;5.60;;;;;;;;;;103601;1292;544935;-72
2023/11/21 07:51:09;;;;;;;12.40;5.50;;;;;;;;;;103746;1292;545447;-71
2023/11/21 07:54:46;;;;;;;10.80;5.30;;;;;;;;;;104006;1288;545050;-70
2023/11/21 07:58:24;;;;;;;13.10;4.60;;;;;;;;;;103844;1288;544790;-70
2023/11/21 08:02:01;;;;;;;9.20;3.60;;;;;;;;;;103809;1289;544913;-71
2023/11/21 08:05:39;;;;;;;10.20;3.70;;;;;;;;;;103735;1291;544960;-71
2023/11/21 08:09:17;;;;;;;10.50;3.90;;;;;;;;;;103795;1289;545708;-70
2023/11/21 08:12:54;;;;;;;12.90;5.30;;;;;;;;;;103761;1291;544852;-71
2023/11/21 08:16:27;;;;;;;10.30;4.80;;;;;;;;;;103904;1289;545045;-71
2023/11/21 08:20:10;;;;;;;10.90;4.80;;;;;;;;;;104495;1287;545512;-70
2023/11/21 08:23:47;;;;;;;9.80;4.00;;;;;;;;;;103817;1291;544790;-71
2023/11/21 08:27:23;;;;;;;8.70;3.90;;;;;;;;;;103926;1292;546432;-71
2023/11/21 08:31:01;;;;;;;8.20;3.40;;;;;;;;;;103944;1287;545232;-70
2023/11/21 08:34:39;;;;;;;8.70;3.30;;;;;;;;;;103751;1291;544975;-72
2023/11/21 08:38:16;;;;;;;12.30;4.30;;;;;;;;;;103570;1295;544880;-71
2023/11/21 08:41:53;;;;;;;7.80;2.70;;;;;;;;;;103622;1306;544758;-71
2023/11/21 08:45:31;;;;;;;13.80;4.60;;;;;;;;;;103836;1290;545128;-71
2023/11/21 08:49:08;;;;;;;10.50;3.50;;;;;;;;;;103798;1291;544813;-73
2023/11/21 08:52:46;;;;;;;14.20;5.60;;;;;;;;;;103587;1294;544816;-72
2023/11/21 08:56:23;;;;;;;10.00;4.10;;;;;;;;;;103842;1291;544955;-71
2023/11/21 09:00:00;;;;;;;9.80;3.70;;;;;;;;;;103800;1291;545995;-71
2023/11/21 09:03:38;;;;;;;8.20;2.90;;;;;;;;;;103733;1291;544883;-72
2023/11/21 09:07:15;;;;;;;8.80;3.60;;;;;;;;;;103737;1291;545471;-72
2023/11/21 09:10:52;;;;;;;9.30;3.30;;;;;;;;;;103958;1288;545183;-73
2023/11/21 09:14:30;;;;;;;7.70;3.10;;;;;;;;;;103766;1291;546120;-72
2023/11/21 09:18:08;;;;;;;7.80;2.90;;;;;;;;;;103806;1289;545161;-74
2023/11/21 09:21:41;;;;;;;7.10;2.70;;;;;;;;;;103864;1295;544861;-72
2023/11/21 09:25:22;;;;;;;7.10;2.70;;;;;;;;;;104613;1282;545867;-72
2023/11/21 09:29:02;;;;;;;7.90;2.70;;;;;;;;;;103800;1290;545108;-73
2023/11/21 09:32:38;;;;;;;9.30;3.20;;;;;;;;;;103803;1292;544866;-71
2023/11/21 09:36:18;;;;;;;8.10;3.50;;;;;;;;;;103826;1292;544945;-72
2023/11/21 09:39:52;;;;;;;11.80;4.50;;;;;;;;;;103777;1292;545006;-72
2023/11/21 09:43:28;;;;;;;6.60;2.40;;;;;;;;;;103944;1301;545497;-73
2023/11/21 09:47:10;;;;;;;6.80;2.60;;;;;;;;;;103918;1288;545704;-71
2023/11/21 09:50:46;;;;;;;9.10;4.00;;;;;;;;;;103817;1291;544716;-72
2023/11/21 09:54:23;;;;;;;8.70;3.80;;;;;;;;;;103848;1301;544728;-72
2023/11/21 09:58:00;;;;;;;10.90;4.40;;;;;;;;;;103783;1290;546010;-73
2023/11/21 10:01:39;;;;;;;10.60;5.40;;;;;;;;;;103683;1292;544959;-73
2023/11/21 10:05:17;;;;;;;25.60;16.20;;;;;;;;;;103813;1289;545045;-73
2023/11/21 10:08:56;;;;;;;13.20;6.80;;;;;;;;;;103799;1289;544917;-73
2023/11/21 10:12:34;;;;;;;12.00;6.90;;;;;;;;;;103828;1292;544763;-72
2023/11/21 10:16:12;;;;;;;11.00;5.40;;;;;;;;;;103768;1291;545919;-72
2023/11/21 10:19:48;;;;;;;7.20;3.20;;;;;;;;;;103732;1289;544771;-73
2023/11/21 10:23:22;;;;;;;7.60;3.40;;;;;;;;;;103877;1292;544992;-72
2023/11/21 10:27:02;;;;;;;8.30;3.00;;;;;;;;;;104077;1287;545048;-72
2023/11/21 10:30:38;;;;;;;8.60;3.60;;;;;;;;;;103807;1291;545946;-72
2023/11/21 10:34:16;;;;;;;6.80;2.40;;;;;;;;;;103803;1292;544763;-73
2023/11/21 10:37:59;;;;;;;6.60;3.10;;;;;;;;;;103745;1295;545992;-71
2023/11/21 10:41:29;;;;;;;8.20;4.70;;;;;;;;;;103797;1290;545669;-71
2023/11/21 10:45:14;;;;;;;9.10;5.30;;;;;;;;;;103501;1306;544775;-72
2023/11/21 10:48:46;;;;;;;11.30;6.30;;;;;;;;;;103758;1295;545897;-72
2023/11/21 10:52:26;;;;;;;8.20;4.10;;;;;;;;;;103817;1292;544891;-74
2023/11/21 10:56:05;;;;;;;7.60;3.60;;;;;;;;;;103704;1292;544949;-72
2023/11/21 10:59:39;;;;;;;6.70;3.00;;;;;;;;;;104099;1285;546682;-70
2023/11/21 11:03:16;;;;;;;8.00;3.70;;;;;;;;;;104610;1282;545030;-74
2023/11/21 11:06:54;;;;;;;9.60;4.40;;;;;;;;;;103708;1289;544832;-73
2023/11/21 11:10:29;;;;;;;10.20;4.60;;;;;;;;;;103836;1292;545182;-72
2023/11/21 11:14:10;;;;;;;9.60;4.40;;;;;;;;;;103784;1289;544752;-74
2023/11/21 11:17:45;;;;;;;9.80;4.20;;;;;;;;;;103901;1292;544781;-72
2023/11/21 11:21:36;;;;;;;9.80;4.80;;;;;;;;;;103807;1291;545876;-70
2023/11/21 11:25:17;;;;;;;8.60;4.20;;;;;;;;;;103802;1291;545134;-71
2023/11/21 11:28:47;;;;;;;;;;;;;;;;;;;;;
2023/11/21 11:32:33;;;;;;;8.60;5.00;;;;;;;;;;104491;1285;545750;-73
2023/11/21 11:35:56;;;;;;;6.70;3.90;;;;;;;;;;103791;1291;544921;-71
2023/11/21 11:39:36;;;;;;;7.20;3.90;;;;;;;;;;103770;1290;545692;-71
2023/11/21 11:43:07;;;;;;;6.80;3.50;;;;;;;;;;103917;1289;544710;-71
2023/11/21 11:46:47;;;;;;;6.20;3.30;;;;;;;;;;104052;1288;545003;-69
2023/11/21 11:50:21;;;;;;;7.00;3.60;;;;;;;;;;103783;1290;545978;-71
2023/11/21 11:53:59;;;;;;;13.80;6.30;;;;;;;;;;103995;1288;545061;-70
2023/11/21 11:57:38;;;;;;;12.00;5.70;;;;;;;;;;103755;1293;545271;-71
2023/11/21 12:01:16;;;;;;;9.20;4.60;;;;;;;;;;104409;1283;545579;-71
2023/11/21 12:04:56;;;;;;;8.20;4.90;;;;;;;;;;103853;1289;545296;-70
2023/11/21 12:08:31;;;;;;;9.10;5.20;;;;;;;;;;103764;1290;545367;-73
2023/11/21 12:12:08;;;;;;;9.60;6.40;;;;;;;;;;103925;1292;544832;-69
2023/11/21 12:15:45;;;;;;;12.20;7.50;;;;;;;;;;104059;1289;545498;-70
2023/11/21 12:19:17;;;;;;;9.20;5.40;;;;;;;;;;103805;1292;544767;-72
2023/11/21 12:22:59;;;;;;;10.50;5.60;;;;;;;;;;103723;1292;545223;-70
2023/11/21 12:26:36;;;;;;;9.00;5.70;;;;;;;;;;103903;1289;545876;-69
2023/11/21 12:30:13;;;;;;;10.10;6.30;;;;;;;;;;104111;1285;544946;-70
2023/11/21 12:33:50;;;;;;;11.40;6.20;;;;;;;;;;103810;1289;544982;-73
2023/11/21 12:37:28;;;;;;;12.20;5.80;;;;;;;;;;103610;1291;544862;-69
2023/11/21 12:41:08;;;;;;;11.50;5.90;;;;;;;;;;103956;1288;545022;-70
2023/11/21 12:44:47;;;;;;;14.00;7.40;;;;;;;;;;104471;1282;545541;-69
2023/11/21 12:48:24;;;;;;;12.70;6.50;;;;;;;;;;103724;1292;544813;-71
2023/11/21 12:51:58;;;;;;;11.00;6.60;;;;;;;;;;103812;1295;544976;-70
2023/11/21 12:55:39;;;;;;;13.40;6.60;;;;;;;;;;103736;1289;544811;-71
2023/11/21 12:59:14;;;;;;;13.60;7.70;;;;;;;;;;104556;1287;545023;-70
2023/11/21 13:02:54;;;;;;;11.10;6.80;;;;;;;;;;103791;1295;545539;-71
2023/11/21 13:06:33;;;;;;;16.20;7.00;;;;;;;;;;103800;1288;545099;-69
2023/11/21 13:10:07;;;;;;;13.70;8.10;;;;;;;;;;103578;1308;545750;-70
2023/11/21 13:13:46;;;;;;;17.20;8.40;;;;;;;;;;103815;1290;544856;-70
2023/11/21 13:17:24;;;;;;;11.50;7.30;;;;;;;;;;103711;1292;545351;-71
2023/11/21 13:21:24;;;;;;;26.50;12.40;;;;;;;;;;103857;1295;544987;-72
2023/11/21 13:24:36;;;;;;;23.60;13.50;;;;;;;;;;104036;1285;545463;-70
2023/11/21 13:28:25;;;;;;;;;;;;;;;;;;;;;
2023/11/21 13:32:10;;;;;;;;;;;;;;;;;;;;;
2023/11/21 13:35:32;;;;;;;14.50;9.20;;;;;;;;;;103748;1291;544921;-71
2023/11/21 13:39:28;;;;;;;15.20;9.20;;;;;;;;;;103403;1293;544908;-69
2023/11/21 13:42:43;;;;;;;19.10;15.30;;;;;;;;;;103556;1291;545871;-71
2023/11/21 13:46:21;;;;;;;14.50;9.10;;;;;;;;;;104008;1285;545351;-70
2023/11/21 13:49:57;;;;;;;24.30;14.80;;;;;;;;;;103711;1290;545005;-70
2023/11/21 13:53:37;;;;;;;16.20;8.70;;;;;;;;;;103670;1290;545575;-70
2023/11/21 13:57:13;;;;;;;20.00;10.20;;;;;;;;;;103739;1291;544999;-70
2023/11/21 14:00:59;;;;;;;78.00;59.60;;;;;;;;;;103689;1290;545063;-69
2023/11/21 14:08:05;;;;;;;172.40;91.00;;;;;;;;;;103843;1291;545051;-69
2023/11/21 14:11:43;;;;;;;154.90;90.20;;;;;;;;;;103639;1295;545083;-70
2023/11/21 14:15:19;;;;;;;165.70;112.30;;;;;;;;;;103586;1291;545812;-71
2023/11/21 14:19:09;;;;;;;41.50;29.90;;;;;;;;;;103489;1299;546008;-71
2023/11/21 14:22:36;;;;;;;29.90;20.80;;;;;;;;;;103607;1296;545598;-71
2023/11/21 14:26:16;;;;;;;16.60;13.00;;;;;;;;;;103777;1291;544729;-72
2023/11/21 14:29:50;;;;;;;14.20;7.50;;;;;;;;;;103953;1288;545347;-70
2023/11/21 14:33:27;;;;;;;10.40;7.10;;;;;;;;;;103810;1290;545051;-68
2023/11/21 14:37:07;;;;;;;12.20;7.70;;;;;;;;;;103684;1291;544889;-70
2023/11/21 14:40:42;;;;;;;7.90;4.10;;;;;;;;;;103618;1294;544891;-71
2023/11/21 14:44:20;;;;;;;10.10;6.00;;;;;;;;;;103647;1289;544857;-70
2023/11/21 14:48:07;;;;;;;13.20;6.40;;;;;;;;;;103573;1292;545604;-72
2023/11/21 14:51:55;;;;;;;8.60;5.20;;;;;;;;;;103641;1294;546615;-69
2023/11/21 14:55:26;;;;;;;8.30;5.70;;;;;;;;;;104148;1286;544772;-69
2023/11/21 14:58:49;;;;;;;10.80;7.50;;;;;;;;;;103573;1291;544752;-72
2023/11/21 15:06:26;;;;;;;9.10;5.50;;;;;;;;;;103717;1289;544807;-69
2023/11/21 15:09:42;;;;;;;8.20;5.10;;;;;;;;;;103911;1288;545513;-69
2023/11/21 15:13:16;;;;;;;7.80;4.30;;;;;;;;;;103583;1289;545380;-71
2023/11/21 15:16:59;;;;;;;8.20;5.10;;;;;;;;;;103673;1289;544821;-69
2023/11/21 15:20:34;;;;;;;11.20;7.40;;;;;;;;;;103719;1290;544931;-70
2023/11/21 15:24:12;;;;;;;9.60;5.70;;;;;;;;;;103652;1289;544975;-70
2023/11/21 15:27:52;;;;;;;7.90;4.60;;;;;;;;;;103411;1295;545322;-70
2023/11/21 15:31:26;;;;;;;9.20;6.00;;;;;;;;;;104350;1283;544981;-69
2023/11/21 15:35:05;;;;;;;8.60;5.10;;;;;;;;;;103746;1290;545868;-69
2023/11/21 15:38:41;;;;;;;11.20;6.30;;;;;;;;;;104482;1286;545021;-70
2023/11/21 15:42:19;;;;;;;12.40;8.20;;;;;;;;;;103607;1290;544633;-70
2023/11/21 15:45:56;;;;;;;12.20;9.40;;;;;;;;;;103788;1292;545652;-70
2023/11/21 15:49:37;;;;;;;157.60;65.30;;;;;;;;;;103774;1289;546182;-69
2023/11/21 15:53:12;;;;;;;49.00;30.40;;;;;;;;;;103757;1292;545022;-70
2023/11/21 15:56:49;;;;;;;93.50;57.50;;;;;;;;;;103818;1291;544944;-69
2023/11/21 16:00:27;;;;;;;155.50;83.20;;;;;;;;;;103897;1288;544964;-69
2023/11/21 16:04:06;;;;;;;133.70;44.00;;;;;;;;;;103638;1295;545436;-69
2023/11/21 16:07:41;;;;;;;58.90;22.20;;;;;;;;;;103779;1288;545101;-70
2023/11/21 16:11:19;;;;;;;39.80;15.60;;;;;;;;;;103751;1289;544963;-69
2023/11/21 16:14:56;;;;;;;46.80;20.10;;;;;;;;;;103527;1298;545508;-71
2023/11/21 16:18:30;;;;;;;33.00;15.10;;;;;;;;;;103888;1286;545213;-70
2023/11/21 16:22:10;;;;;;;60.50;28.90;;;;;;;;;;103711;1292;545067;-72
2023/11/21 16:25:54;;;;;;;30.10;15.90;;;;;;;;;;103702;1289;544862;-69
2023/11/21 16:29:30;;;;;;;32.50;16.50;;;;;;;;;;103827;1292;544846;-70
2023/11/21 16:33:03;;;;;;;44.40;22.40;;;;;;;;;;103600;1294;544924;-70
2023/11/21 16:36:45;;;;;;;27.20;15.30;;;;;;;;;;104606;1285;544847;-70
2023/11/21 16:40:20;;;;;;;41.60;21.70;;;;;;;;;;103464;1291;545094;-70
2023/11/21 16:44:01;;;;;;;30.80;16.10;;;;;;;;;;103603;1299;544876;-69
2023/11/21 16:47:33;;;;;;;36.00;18.60;;;;;;;;;;103678;1295;544967;-69
2023/11/21 16:51:12;;;;;;;29.00;16.60;;;;;;;;;;103575;1292;545889;-70
2023/11/21 16:54:51;;;;;;;28.30;16.30;;;;;;;;;;103684;1294;544831;-69
2023/11/21 16:58:26;;;;;;;38.40;20.80;;;;;;;;;;103807;1289;545151;-70
2023/11/21 17:02:03;;;;;;;67.50;31.80;;;;;;;;;;103659;1289;544817;-70
2023/11/21 17:05:41;;;;;;;37.70;23.10;;;;;;;;;;103652;1292;545718;-71
2023/11/21 17:09:18;;;;;;;46.20;33.00;;;;;;;;;;103612;1291;544936;-70
2023/11/21 17:12:55;;;;;;;26.50;17.90;;;;;;;;;;103908;1288;545341;-70
2023/11/21 17:16:37;;;;;;;27.20;17.40;;;;;;;;;;103762;1292;545511;-70
2023/11/21 17:20:12;;;;;;;29.30;20.80;;;;;;;;;;103783;1292;544754;-71
2023/11/21 17:23:44;;;;;;;30.30;19.70;;;;;;;;;;103635;1288;545625;-73
2023/11/21 17:27:58;;;;;;;29.10;22.10;;;;;;;;;;103818;1290;544887;-68
2023/11/21 17:31:03;;;;;;;33.30;22.80;;;;;;;;;;103392;1294;544998;-69
2023/11/21 17:34:40;;;;;;;29.00;18.50;;;;;;;;;;103432;1297;545553;-71
2023/11/21 17:38:18;;;;;;;28.60;19.80;;;;;;;;;;103748;1289;544725;-69
2023/11/21 17:41:55;;;;;;;39.70;27.20;;;;;;;;;;103673;1291;545082;-71
2023/11/21 17:45:35;;;;;;;28.20;22.70;;;;;;;;;;103708;1292;544900;-72
2023/11/21 17:49:13;;;;;;;29.10;23.40;;;;;;;;;;103299;1289;548277;-70
2023/11/21 17:52:47;;;;;;;23.60;17.20;;;;;;;;;;103834;1288;544850;-72
2023/11/21 17:56:26;;;;;;;18.20;14.40;;;;;;;;;;103723;1292;545394;-73
2023/11/21 18:00:09;;;;;;;22.10;18.50;;;;;;;;;;103677;1292;546296;-73
2023/11/21 18:03:40;;;;;;;27.00;21.60;;;;;;;;;;104161;1291;544819;-70
2023/11/21 18:07:17;;;;;;;17.50;13.30;;;;;;;;;;103769;1299;545183;-70
2023/11/21 18:10:58;;;;;;;16.90;13.30;;;;;;;;;;103666;1291;544935;-73
2023/11/21 18:14:32;;;;;;;18.30;12.30;;;;;;;;;;103751;1289;545099;-72
2023/11/21 18:18:13;;;;;;;22.50;13.90;;;;;;;;;;103742;1289;545857;-70
2023/11/21 18:21:47;;;;;;;20.20;14.60;;;;;;;;;;103713;1291;545579;-70
2023/11/21 18:25:28;;;;;;;21.40;17.20;;;;;;;;;;103763;1292;546113;-71
2023/11/21 18:29:02;;;;;;;19.70;15.50;;;;;;;;;;103721;1291;544900;-71
2023/11/21 18:33:01;;;;;;;21.10;16.90;;;;;;;;;;103638;1292;545831;-70
2023/11/21 18:36:17;;;;;;;23.20;17.40;;;;;;;;;;103931;1292;545044;-71
2023/11/21 18:40:22;;;;;;;29.40;19.60;;;;;;;;;;103756;1289;548205;-74
2023/11/21 18:43:32;;;;;;;28.00;20.30;;;;;;;;;;103756;1291;546045;-72
2023/11/21 18:47:15;;;;;;;28.60;21.40;;;;;;;;;;103235;1295;545191;-75
2023/11/21 18:50:50;;;;;;;49.80;27.40;;;;;;;;;;103740;1292;544766;-71
2023/11/21 18:54:24;;;;;;;68.70;30.20;;;;;;;;;;103757;1290;545754;-74
2023/11/21 18:58:03;;;;;;;69.70;29.70;;;;;;;;;;103563;1295;545667;-71
2023/11/21 19:01:43;;;;;;;64.70;31.00;;;;;;;;;;103792;1289;547801;-73
2023/11/21 19:05:20;;;;;;;90.10;38.80;;;;;;;;;;103705;1291;546531;-70
2023/11/21 19:09:19;;;;;;;79.20;33.90;;;;;;;;;;104265;1285;548224;-74
2023/11/21 19:12:35;;;;;;;68.30;31.00;;;;;;;;;;103717;1291;545339;-71
2023/11/21 19:16:14;;;;;;;54.80;38.90;;;;;;;;;;103730;1289;544920;-72
2023/11/21 19:19:57;;;;;;;34.90;27.30;;;;;;;;;;103575;1298;547944;-75
2023/11/21 19:23:26;;;;;;;42.90;31.70;;;;;;;;;;103690;1289;544801;-73
2023/11/21 19:27:05;;;;;;;48.20;32.60;;;;;;;;;;103867;1293;545857;-71
2023/11/21 19:30:41;;;;;;;101.70;53.10;;;;;;;;;;104495;1283;545700;-72
2023/11/21 19:34:20;;;;;;;66.50;43.70;;;;;;;;;;103737;1289;545121;-72
2023/11/21 19:38:19;;;;;;;52.40;34.00;;;;;;;;;;103774;1292;548060;-75
2023/11/21 19:41:40;;;;;;;42.90;30.00;;;;;;;;;;103752;1291;544781;-72
2023/11/21 19:45:14;;;;;;;35.50;27.40;;;;;;;;;;103845;1289;544954;-74
2023/11/21 19:48:52;;;;;;;41.00;26.20;;;;;;;;;;103758;1288;545140;-74
2023/11/21 19:52:40;;;;;;;39.90;23.90;;;;;;;;;;103809;1292;545181;-73
2023/11/21 19:56:10;;;;;;;42.50;27.70;;;;;;;;;;103770;1293;547258;-73
2023/11/21 19:59:45;;;;;;;37.80;25.70;;;;;;;;;;103628;1291;547970;-72
2023/11/21 20:03:20;;;;;;;55.70;32.40;;;;;;;;;;104690;1283;546000;-73
2023/11/21 20:06:54;;;;;;;40.70;28.30;;;;;;;;;;103802;1291;545290;-76
2023/11/21 20:10:32;;;;;;;35.00;23.60;;;;;;;;;;103807;1291;544972;-76
2023/11/21 20:14:11;;;;;;;46.80;31.80;;;;;;;;;;103854;1291;545407;-75
2023/11/21 20:17:47;;;;;;;50.10;30.10;;;;;;;;;;103824;1294;544891;-73
2023/11/21 20:21:24;;;;;;;33.00;23.10;;;;;;;;;;103653;1291;544851;-73
2023/11/21 20:25:16;;;;;;;25.00;19.40;;;;;;;;;;103597;1295;547777;-74
2023/11/21 20:28:44;;;;;;;33.50;23.30;;;;;;;;;;103782;1292;545003;-75
2023/11/21 20:32:40;;;;;;;28.90;20.00;;;;;;;;;;103687;1295;545476;-77
2023/11/21 20:35:53;;;;;;;39.60;27.80;;;;;;;;;;103811;1291;545004;-75
2023/11/21 20:40:03;;;;;;;36.00;25.10;;;;;;;;;;103640;1291;548134;-76
2023/11/21 20:43:09;;;;;;;29.00;22.50;;;;;;;;;;103845;1292;544946;-75
2023/11/21 20:46:53;;;;;;;36.80;27.50;;;;;;;;;;103702;1291;545079;-73
2023/11/21 20:50:27;;;;;;;34.60;25.60;;;;;;;;;;103760;1293;544902;-74
2023/11/21 20:54:00;;;;;;;31.50;24.50;;;;;;;;;;104545;1286;545126;-73
2023/11/21 20:57:42;;;;;;;33.70;24.80;;;;;;;;;;103746;1291;545803;-73
2023/11/21 21:01:15;;;;;;;29.10;21.10;;;;;;;;;;103831;1290;544821;-72
2023/11/21 21:04:53;;;;;;;27.60;19.20;;;;;;;;;;103545;1295;545021;-74
2023/11/21 21:08:31;;;;;;;29.40;21.30;;;;;;;;;;103856;1289;545442;-74
2023/11/21 21:12:11;;;;;;;32.90;21.20;;;;;;;;;;103950;1288;545223;-72